createdAt,value
2023-02-06T00:00:23.798Z,46.89
2023-02-06T00:01:23.810Z,46.57
2023-02-06T00:02:23.884Z,46.25
2023-02-06T00:03:23.795Z,46.25
2023-02-06T00:04:23.777Z,45.60
2023-02-06T00:05:23.812Z,46.08
2023-02-06T00:06:23.769Z,45.76
2023-02-06T00:07:23.763Z,45.76
2023-02-06T00:08:23.781Z,46.08
2023-02-06T00:09:23.737Z,47.05
2023-02-06T00:10:23.730Z,48.98
2023-02-06T00:11:23.729Z,46.41
2023-02-06T00:12:23.729Z,46.89
2023-02-06T00:13:23.717Z,46.08
2023-02-06T00:14:23.697Z,46.73
2023-02-06T00:15:23.693Z,46.41
2023-02-06T00:16:23.686Z,47.37
2023-02-06T00:17:23.701Z,47.05
2023-02-06T00:18:23.677Z,46.41
2023-02-06T00:19:23.669Z,46.25
2023-02-06T00:20:23.656Z,46.25
2023-02-06T00:21:23.676Z,47.70
2023-02-06T00:22:23.679Z,46.08
2023-02-06T00:23:23.659Z,46.41
2023-02-06T00:24:23.637Z,48.02
2023-02-06T00:25:23.636Z,46.73
2023-02-06T00:26:23.644Z,46.08
2023-02-06T00:27:23.613Z,46.57
2023-02-06T00:28:23.629Z,46.57
2023-02-06T00:29:23.611Z,46.73
2023-02-06T00:30:23.643Z,45.76
2023-02-06T00:31:23.609Z,46.89
2023-02-06T00:32:23.643Z,49.31
2023-02-06T00:33:23.594Z,46.89
2023-02-06T00:34:23.571Z,47.21
2023-02-06T00:35:23.574Z,46.41
2023-02-06T00:36:23.584Z,46.89
2023-02-06T00:37:23.549Z,48.50
2023-02-06T00:38:23.578Z,47.37
2023-02-06T00:39:23.540Z,47.53
2023-02-06T00:40:23.544Z,46.41
2023-02-06T00:41:23.558Z,46.25
2023-02-06T00:42:23.521Z,46.25
2023-02-06T00:43:23.530Z,47.86
2023-02-06T00:44:23.517Z,46.41
2023-02-06T00:45:23.523Z,46.25
2023-02-06T00:46:23.596Z,47.05
2023-02-06T00:47:23.490Z,46.89
2023-02-06T00:48:23.494Z,46.41
2023-02-06T00:49:23.503Z,46.57
2023-02-06T00:50:23.471Z,47.05
2023-02-06T00:51:23.474Z,48.18
2023-02-06T00:52:23.466Z,48.50
2023-02-06T00:53:23.449Z,47.05
2023-02-06T00:54:23.462Z,50.60
2023-02-06T00:55:23.428Z,49.79
2023-02-06T00:56:23.443Z,46.89
2023-02-06T00:57:23.430Z,46.41
2023-02-06T00:58:23.422Z,45.92
2023-02-06T00:59:23.417Z,46.57
2023-02-06T01:00:23.406Z,46.41
2023-02-06T01:01:23.470Z,46.89
2023-02-06T01:02:23.416Z,46.08
2023-02-06T01:03:23.398Z,46.25
2023-02-06T01:04:23.373Z,46.57
2023-02-06T01:05:23.375Z,46.41
2023-02-06T01:06:23.357Z,46.41
2023-02-06T01:07:23.355Z,46.89
2023-02-06T01:08:23.354Z,48.18
2023-02-06T01:09:23.349Z,47.05
2023-02-06T01:10:23.334Z,46.89
2023-02-06T01:11:23.319Z,46.08
2023-02-06T01:12:23.323Z,46.25
2023-02-06T01:13:23.311Z,46.25
2023-02-06T01:14:23.317Z,48.02
2023-02-06T01:15:23.289Z,46.08
2023-02-06T01:16:23.314Z,46.08
2023-02-06T01:17:23.285Z,46.25
2023-02-06T01:18:23.275Z,46.41
2023-02-06T01:19:23.274Z,46.41
2023-02-06T01:20:23.268Z,46.89
2023-02-06T01:21:23.262Z,48.18
2023-02-06T01:22:23.251Z,46.41
2023-02-06T01:23:23.233Z,45.76
2023-02-06T01:24:24.234Z,46.41
2023-02-06T01:25:23.228Z,48.02
2023-02-06T01:26:23.236Z,46.89
2023-02-06T01:27:23.278Z,46.57
2023-02-06T01:28:23.216Z,46.25
2023-02-06T01:29:23.205Z,46.89
2023-02-06T01:30:23.219Z,45.92
2023-02-06T01:31:23.233Z,45.92
2023-02-06T01:32:23.181Z,45.76
2023-02-06T01:33:23.179Z,46.57
2023-02-06T01:34:23.263Z,46.57
2023-02-06T01:35:23.164Z,46.08
2023-02-06T01:36:23.162Z,46.41
2023-02-06T01:37:23.149Z,46.25
2023-02-06T01:38:23.134Z,47.05
2023-02-06T01:39:24.134Z,46.73
2023-02-06T01:40:23.134Z,46.08
2023-02-06T01:41:23.127Z,48.02
2023-02-06T01:42:23.134Z,47.05
2023-02-06T01:43:23.110Z,46.41
2023-02-06T01:44:23.113Z,45.92
2023-02-06T01:45:23.094Z,46.08
2023-02-06T01:46:23.107Z,46.08
2023-02-06T01:47:23.114Z,46.41
2023-02-06T01:48:23.075Z,46.89
2023-02-06T01:49:23.066Z,46.57
2023-02-06T01:50:23.050Z,47.37
2023-02-06T01:51:23.050Z,48.02
2023-02-06T01:52:23.051Z,47.21
2023-02-06T01:53:23.065Z,46.41
2023-02-06T01:54:23.030Z,45.92
2023-02-06T01:55:23.035Z,46.25
2023-02-06T01:56:23.031Z,46.57
2023-02-06T01:57:23.014Z,47.37
2023-02-06T01:58:23.030Z,45.92
2023-02-06T01:59:23.048Z,47.05
2023-02-06T02:00:22.994Z,45.92
2023-02-06T02:01:22.994Z,45.76
2023-02-06T02:02:22.990Z,47.05
2023-02-06T02:03:22.978Z,47.21
2023-02-06T02:04:22.976Z,46.41
2023-02-06T02:05:22.961Z,46.89
2023-02-06T02:06:22.946Z,46.08
2023-02-06T02:07:22.946Z,46.25
2023-02-06T02:08:22.953Z,46.57
2023-02-06T02:09:23.036Z,46.89
2023-02-06T02:10:22.939Z,45.92
2023-02-06T02:11:22.984Z,46.25
2023-02-06T02:12:22.924Z,46.25
2023-02-06T02:13:23.036Z,46.89
2023-02-06T02:14:22.910Z,46.25
2023-02-06T02:15:22.908Z,45.92
2023-02-06T02:16:22.950Z,46.08
2023-02-06T02:17:23.894Z,46.25
2023-02-06T02:18:22.886Z,46.08
2023-02-06T02:19:22.903Z,46.08
2023-02-06T02:20:22.876Z,46.57
2023-02-06T02:21:22.866Z,45.92
2023-02-06T02:22:22.849Z,48.18
2023-02-06T02:23:22.852Z,46.25
2023-02-06T02:24:22.863Z,45.92
2023-02-06T02:25:22.838Z,46.41
2023-02-06T02:26:22.829Z,48.50
2023-02-06T02:27:22.825Z,46.73
2023-02-06T02:28:22.826Z,47.05
2023-02-06T02:29:22.811Z,46.41
2023-02-06T02:30:22.841Z,46.25
2023-02-06T02:31:22.814Z,45.92
2023-02-06T02:32:22.785Z,46.41
2023-02-06T02:33:22.790Z,48.18
2023-02-06T02:34:22.773Z,47.37
2023-02-06T02:35:22.809Z,46.41
2023-02-06T02:36:22.786Z,45.76
2023-02-06T02:37:22.758Z,46.25
2023-02-06T02:38:22.738Z,45.92
2023-02-06T02:39:22.750Z,46.25
2023-02-06T02:40:22.738Z,46.73
2023-02-06T02:41:22.737Z,46.73
2023-02-06T02:42:22.754Z,47.21
2023-02-06T02:43:22.711Z,46.25
2023-02-06T02:44:22.709Z,47.05
2023-02-06T02:45:22.717Z,48.18
2023-02-06T02:46:22.707Z,46.25
2023-02-06T02:47:22.680Z,45.76
2023-02-06T02:48:22.680Z,46.73
2023-02-06T02:49:22.676Z,47.21
2023-02-06T02:50:22.658Z,46.25
2023-02-06T02:51:22.674Z,46.89
2023-02-06T02:52:22.652Z,46.25
2023-02-06T02:53:22.639Z,46.25
2023-02-06T02:54:22.632Z,46.25
2023-02-06T02:55:22.621Z,45.92
2023-02-06T02:56:22.640Z,45.92
2023-02-06T02:57:22.644Z,46.41
2023-02-06T02:58:22.612Z,46.73
2023-02-06T02:59:22.593Z,46.57
2023-02-06T03:00:22.613Z,49.63
2023-02-06T03:01:22.594Z,46.57
2023-02-06T03:02:22.636Z,46.41
2023-02-06T03:03:22.586Z,46.57
2023-02-06T03:04:22.573Z,46.57
2023-02-06T03:05:22.565Z,46.41
2023-02-06T03:06:22.546Z,47.86
2023-02-06T03:07:22.567Z,46.25
2023-02-06T03:08:22.535Z,47.21
2023-02-06T03:09:22.539Z,45.76
2023-02-06T03:10:22.539Z,46.89
2023-02-06T03:11:22.506Z,46.89
2023-02-06T03:12:22.550Z,46.89
2023-02-06T03:13:22.558Z,47.21
2023-02-06T03:14:22.506Z,47.70
2023-02-06T03:15:22.487Z,47.21
2023-02-06T03:16:22.540Z,46.41
2023-02-06T03:17:22.517Z,46.41
2023-02-06T03:18:22.478Z,47.37
2023-02-06T03:19:22.474Z,48.02
2023-02-06T03:20:22.467Z,47.37
2023-02-06T03:21:22.463Z,47.53
2023-02-06T03:22:22.462Z,46.41
2023-02-06T03:23:22.452Z,46.25
2023-02-06T03:24:22.435Z,46.41
2023-02-06T03:25:22.436Z,46.89
2023-02-06T03:26:22.449Z,47.37
2023-02-06T03:27:22.426Z,47.05
2023-02-06T03:28:22.429Z,47.70
2023-02-06T03:29:22.478Z,46.73
2023-02-06T03:30:22.425Z,48.50
2023-02-06T03:31:22.444Z,46.73
2023-02-06T03:32:23.387Z,45.76
2023-02-06T03:33:22.407Z,48.02
2023-02-06T03:34:22.372Z,46.25
2023-02-06T03:35:22.382Z,46.41
2023-02-06T03:36:22.356Z,47.05
2023-02-06T03:37:22.340Z,47.86
2023-02-06T03:38:22.344Z,48.50
2023-02-06T03:39:22.348Z,48.66
2023-02-06T03:40:22.332Z,47.70
2023-02-06T03:41:22.320Z,46.89
2023-02-06T03:42:22.305Z,46.41
2023-02-06T03:43:22.308Z,47.21
2023-02-06T03:44:22.301Z,48.34
2023-02-06T03:45:22.404Z,47.37
2023-02-06T03:46:22.313Z,48.82
2023-02-06T03:47:22.296Z,47.37
2023-02-06T03:48:22.266Z,47.21
2023-02-06T03:49:22.270Z,48.34
2023-02-06T03:50:22.259Z,47.37
2023-02-06T03:51:22.284Z,48.50
2023-02-06T03:52:22.232Z,47.70
2023-02-06T03:53:22.234Z,49.47
2023-02-06T03:54:22.227Z,48.02
2023-02-06T03:55:22.230Z,47.53
2023-02-06T03:56:22.249Z,47.37
2023-02-06T03:57:22.197Z,47.05
2023-02-06T03:58:24.451Z,49.47
2023-02-06T03:59:22.207Z,47.05
2023-02-06T04:00:22.189Z,47.70
2023-02-06T04:01:23.299Z,47.53
2023-02-06T04:02:22.202Z,48.34
2023-02-06T04:03:22.176Z,46.73
2023-02-06T04:04:22.162Z,47.86
2023-02-06T04:05:22.152Z,47.21
2023-02-06T04:06:22.148Z,51.24
2023-02-06T04:07:22.208Z,49.63
2023-02-06T04:08:22.128Z,48.34
2023-02-06T04:09:22.128Z,47.05
2023-02-06T04:10:22.211Z,49.31
2023-02-06T04:11:22.116Z,48.18
2023-02-06T04:12:22.120Z,47.86
2023-02-06T04:13:22.133Z,49.47
2023-02-06T04:14:22.099Z,50.27
2023-02-06T04:15:22.087Z,48.98
2023-02-06T04:16:22.153Z,47.70
2023-02-06T04:17:40.730Z,49.15
2023-02-06T04:18:24.082Z,50.92
2023-02-06T04:19:22.102Z,49.15
2023-02-06T04:20:22.053Z,51.56
2023-02-06T04:21:22.098Z,51.24
2023-02-06T04:22:22.062Z,52.05
2023-02-06T04:23:22.045Z,50.27
2023-02-06T04:24:22.030Z,50.60
2023-02-06T04:25:22.022Z,53.50
2023-02-06T04:26:22.016Z,50.43
2023-02-06T04:27:21.996Z,50.27
2023-02-06T04:28:22.078Z,49.63
2023-02-06T04:29:21.992Z,51.40
2023-02-06T04:30:22.042Z,51.40
2023-02-06T04:31:21.996Z,51.88
2023-02-06T04:32:21.976Z,51.08
2023-02-06T04:33:22.083Z,51.08
2023-02-06T04:34:21.973Z,51.24
2023-02-06T04:35:21.938Z,52.05
2023-02-06T04:36:21.959Z,50.60
2023-02-06T04:37:21.942Z,50.60
2023-02-06T04:38:21.940Z,52.85
2023-02-06T04:39:21.925Z,51.72
2023-02-06T04:40:21.922Z,51.56
2023-02-06T04:41:21.916Z,52.37
2023-02-06T04:42:21.904Z,52.05
2023-02-06T04:43:21.899Z,53.33
2023-02-06T04:44:21.880Z,50.92
2023-02-06T04:45:22.875Z,52.53
2023-02-06T04:46:21.924Z,53.17
2023-02-06T04:47:21.867Z,50.60
2023-02-06T04:48:21.865Z,52.85
2023-02-06T04:49:21.857Z,51.88
2023-02-06T04:50:21.852Z,51.40
2023-02-06T04:51:21.850Z,53.33
2023-02-06T04:52:21.851Z,51.24
2023-02-06T04:53:21.852Z,52.69
2023-02-06T04:54:21.834Z,52.05
2023-02-06T04:55:21.833Z,51.72
2023-02-06T04:56:21.823Z,53.01
2023-02-06T04:57:21.804Z,49.79
2023-02-06T04:58:21.800Z,51.72
2023-02-06T04:59:21.795Z,50.60
2023-02-06T05:00:21.781Z,50.43
2023-02-06T05:01:21.804Z,51.24
2023-02-06T05:02:21.809Z,52.21
2023-02-06T05:03:21.759Z,52.37
2023-02-06T05:04:21.753Z,51.72
2023-02-06T05:05:21.876Z,52.53
2023-02-06T05:06:21.761Z,50.76
2023-02-06T05:07:21.734Z,53.82
2023-02-06T05:08:21.720Z,49.79
2023-02-06T05:09:21.710Z,51.72
2023-02-06T05:10:21.702Z,51.56
2023-02-06T05:11:21.715Z,51.24
2023-02-06T05:12:21.690Z,50.76
2023-02-06T05:13:21.682Z,52.37
2023-02-06T05:14:21.679Z,51.40
2023-02-06T05:15:21.675Z,51.88
2023-02-06T05:16:21.705Z,51.88
2023-02-06T05:17:21.669Z,53.50
2023-02-06T05:18:21.654Z,55.27
2023-02-06T05:19:21.642Z,52.05
2023-02-06T05:20:21.632Z,53.66
2023-02-06T05:21:21.661Z,52.21
2023-02-06T05:22:21.633Z,51.88
2023-02-06T05:23:21.629Z,55.11
2023-02-06T05:24:21.612Z,51.88
2023-02-06T05:25:21.600Z,50.43
2023-02-06T05:26:21.614Z,52.85
2023-02-06T05:27:21.587Z,52.69
2023-02-06T05:28:21.594Z,52.85
2023-02-06T05:29:21.583Z,52.37
2023-02-06T05:30:21.564Z,54.30
2023-02-06T05:31:21.651Z,53.82
2023-02-06T05:32:21.564Z,53.82
2023-02-06T05:33:21.555Z,54.46
2023-02-06T05:34:21.558Z,53.33
2023-02-06T05:35:21.536Z,53.66
2023-02-06T05:36:21.524Z,54.79
2023-02-06T05:37:21.522Z,54.62
2023-02-06T05:38:21.537Z,54.30
2023-02-06T05:39:21.509Z,54.79
2023-02-06T05:40:21.507Z,54.62
2023-02-06T05:41:21.522Z,56.72
2023-02-06T05:42:21.493Z,55.27
2023-02-06T05:43:21.618Z,55.43
2023-02-06T05:44:21.674Z,53.98
2023-02-06T05:45:21.483Z,52.69
2023-02-06T05:46:21.559Z,52.85
2023-02-06T05:47:21.480Z,53.33
2023-02-06T05:48:21.464Z,53.17
2023-02-06T05:49:21.461Z,53.17
2023-02-06T05:50:21.463Z,51.08
2023-02-06T05:51:21.457Z,51.72
2023-02-06T05:52:21.442Z,53.33
2023-02-06T05:53:21.423Z,51.72
2023-02-06T05:54:21.456Z,53.50
2023-02-06T05:55:21.415Z,52.85
2023-02-06T05:56:21.406Z,51.56
2023-02-06T05:57:21.404Z,52.21
2023-02-06T05:58:21.394Z,53.33
2023-02-06T05:59:21.409Z,50.43
2023-02-06T06:00:21.405Z,52.85
2023-02-06T06:01:21.388Z,53.33
2023-02-06T06:02:21.369Z,50.92
2023-02-06T06:03:21.366Z,51.56
2023-02-06T06:04:21.480Z,53.17
2023-02-06T06:05:21.378Z,52.53
2023-02-06T06:06:21.349Z,52.69
2023-02-06T06:07:21.360Z,53.50
2023-02-06T06:08:21.388Z,53.01
2023-02-06T06:09:21.337Z,52.85
2023-02-06T06:10:21.327Z,54.30
2023-02-06T06:11:21.321Z,52.85
2023-02-06T06:12:21.335Z,52.53
2023-02-06T06:13:21.315Z,52.53
2023-02-06T06:14:21.292Z,53.98
2023-02-06T06:15:21.296Z,53.50
2023-02-06T06:16:21.319Z,54.30
2023-02-06T06:17:21.330Z,54.30
2023-02-06T06:18:21.280Z,54.62
2023-02-06T06:19:21.268Z,55.27
2023-02-06T06:20:21.254Z,56.07
2023-02-06T06:21:21.252Z,55.91
2023-02-06T06:22:21.251Z,55.43
2023-02-06T06:23:21.233Z,55.43
2023-02-06T06:24:21.228Z,56.40
2023-02-06T06:25:21.231Z,56.24
2023-02-06T06:26:21.212Z,53.82
2023-02-06T06:27:21.233Z,54.46
2023-02-06T06:28:21.268Z,52.85
2023-02-06T06:29:21.199Z,54.95
2023-02-06T06:30:21.195Z,55.43
2023-02-06T06:31:21.237Z,55.27
2023-02-06T06:32:21.183Z,54.79
2023-02-06T06:33:21.171Z,53.33
2023-02-06T06:34:21.167Z,53.17
2023-02-06T06:35:21.164Z,55.43
2023-02-06T06:36:21.154Z,56.88
2023-02-06T06:37:21.166Z,56.24
2023-02-06T06:38:21.142Z,55.43
2023-02-06T06:39:21.136Z,54.79
2023-02-06T06:40:21.130Z,55.11
2023-02-06T06:41:21.121Z,57.36
2023-02-06T06:42:21.118Z,57.04
2023-02-06T06:43:21.138Z,54.14
2023-02-06T06:44:21.090Z,55.43
2023-02-06T06:45:21.139Z,58.01
2023-02-06T06:46:21.085Z,56.24
2023-02-06T06:47:21.179Z,54.14
2023-02-06T06:48:21.116Z,53.33
2023-02-06T06:49:21.064Z,54.79
2023-02-06T06:50:21.046Z,55.43
2023-02-06T06:51:21.041Z,54.79
2023-02-06T06:52:25.222Z,56.72
2023-02-06T06:53:22.041Z,56.40
2023-02-06T06:54:21.038Z,55.27
2023-02-06T06:55:21.023Z,54.95
2023-02-06T06:56:21.010Z,55.11
2023-02-06T06:57:21.156Z,53.17
2023-02-06T06:58:21.004Z,52.85
2023-02-06T06:59:20.990Z,54.30
2023-02-06T07:00:20.986Z,54.46
2023-02-06T07:01:21.036Z,52.21
2023-02-06T07:02:20.975Z,52.05
2023-02-06T07:03:21.000Z,52.21
2023-02-06T07:04:20.976Z,52.37
2023-02-06T07:05:20.946Z,55.11
2023-02-06T07:06:20.989Z,54.14
2023-02-06T07:07:20.968Z,53.33
2023-02-06T07:08:20.943Z,51.72
2023-02-06T07:09:20.938Z,52.37
2023-02-06T07:10:20.923Z,52.85
2023-02-06T07:11:20.928Z,53.33
2023-02-06T07:12:20.926Z,54.62
2023-02-06T07:13:20.905Z,55.11
2023-02-06T07:14:20.906Z,55.43
2023-02-06T07:15:20.886Z,54.79
2023-02-06T07:16:20.915Z,51.56
2023-02-06T07:17:20.878Z,53.33
2023-02-06T07:18:20.875Z,54.46
2023-02-06T07:19:20.859Z,54.46
2023-02-06T07:20:20.861Z,54.46
2023-02-06T07:21:20.855Z,51.56
2023-02-06T07:22:20.842Z,55.11
2023-02-06T07:23:21.842Z,54.14
2023-02-06T07:24:20.831Z,55.91
2023-02-06T07:25:20.818Z,53.33
2023-02-06T07:26:20.822Z,53.66
2023-02-06T07:27:20.815Z,52.85
2023-02-06T07:28:20.858Z,54.46
2023-02-06T07:29:20.822Z,53.17
2023-02-06T07:30:20.834Z,53.82
2023-02-06T07:31:20.834Z,53.82
2023-02-06T07:32:20.779Z,56.24
2023-02-06T07:33:20.778Z,54.30
2023-02-06T07:34:20.768Z,53.01
2023-02-06T07:35:20.759Z,52.85
2023-02-06T07:36:20.855Z,53.50
2023-02-06T07:37:20.748Z,53.82
2023-02-06T07:38:20.760Z,53.98
2023-02-06T07:39:20.753Z,53.33
2023-02-06T07:40:20.726Z,53.01
2023-02-06T07:41:20.725Z,52.05
2023-02-06T07:42:20.720Z,53.01
2023-02-06T07:43:20.699Z,53.50
2023-02-06T07:44:20.718Z,51.88
2023-02-06T07:45:20.698Z,53.50
2023-02-06T07:46:20.761Z,54.79
2023-02-06T07:47:20.683Z,54.30
2023-02-06T07:48:20.666Z,53.82
2023-02-06T07:49:20.688Z,52.37
2023-02-06T07:50:20.674Z,52.05
2023-02-06T07:51:20.651Z,52.69
2023-02-06T07:52:20.646Z,52.37
2023-02-06T07:53:20.638Z,53.17
2023-02-06T07:54:21.031Z,53.33
2023-02-06T07:55:21.645Z,51.88
2023-02-06T07:56:20.610Z,52.37
2023-02-06T07:57:20.614Z,50.76
2023-02-06T07:58:20.617Z,53.01
2023-02-06T07:59:20.612Z,54.30
2023-02-06T08:00:20.598Z,53.17
2023-02-06T08:01:20.690Z,51.56
2023-02-06T08:02:20.582Z,51.24
2023-02-06T08:03:20.566Z,53.01
2023-02-06T08:04:20.595Z,53.82
2023-02-06T08:05:20.562Z,50.27
2023-02-06T08:06:21.829Z,52.37
2023-02-06T08:07:20.552Z,49.47
2023-02-06T08:08:20.588Z,50.43
2023-02-06T08:09:20.543Z,51.24
2023-02-06T08:10:20.526Z,50.11
2023-02-06T08:11:20.521Z,51.08
2023-02-06T08:12:20.526Z,52.37
2023-02-06T08:13:20.513Z,51.24
2023-02-06T08:14:20.502Z,50.11
2023-02-06T08:15:20.498Z,50.27
2023-02-06T08:16:20.519Z,50.60
2023-02-06T08:17:20.501Z,50.76
2023-02-06T08:18:20.471Z,49.79
2023-02-06T08:19:20.473Z,51.72
2023-02-06T08:20:20.484Z,50.76
2023-02-06T08:21:20.454Z,51.24
2023-02-06T08:22:20.462Z,51.40
2023-02-06T08:23:20.972Z,52.53
2023-02-06T08:24:21.438Z,52.05
2023-02-06T08:25:20.440Z,49.95
2023-02-06T08:26:20.425Z,51.08
2023-02-06T08:27:20.429Z,50.76
2023-02-06T08:28:20.434Z,49.15
2023-02-06T08:29:20.399Z,50.27
2023-02-06T08:30:20.407Z,48.82
2023-02-06T08:31:20.605Z,49.63
2023-02-06T08:32:20.374Z,49.95
2023-02-06T08:33:20.376Z,51.08
2023-02-06T08:34:20.365Z,51.88
2023-02-06T08:35:20.358Z,52.05
2023-02-06T08:36:20.352Z,51.72
2023-02-06T08:37:20.345Z,52.69
2023-02-06T08:38:20.366Z,51.24
2023-02-06T08:39:20.341Z,50.43
2023-02-06T08:40:20.325Z,50.60
2023-02-06T08:41:20.317Z,50.11
2023-02-06T08:42:20.302Z,52.05
2023-02-06T08:43:20.306Z,51.24
2023-02-06T08:44:20.289Z,52.21
2023-02-06T08:45:20.301Z,50.27
2023-02-06T08:46:20.313Z,50.43
2023-02-06T08:47:20.278Z,49.79
2023-02-06T08:48:20.309Z,49.95
2023-02-06T08:49:20.328Z,52.21
2023-02-06T08:50:20.286Z,51.88
2023-02-06T08:51:20.255Z,52.69
2023-02-06T08:52:20.235Z,51.08
2023-02-06T08:53:21.230Z,49.63
2023-02-06T08:54:20.247Z,51.24
2023-02-06T08:55:20.237Z,51.72
2023-02-06T08:56:20.248Z,51.24
2023-02-06T08:57:20.210Z,48.98
2023-02-06T08:58:20.200Z,48.66
2023-02-06T08:59:20.206Z,50.27
2023-02-06T09:00:20.194Z,47.37
2023-02-06T09:01:20.252Z,47.86
2023-02-06T09:02:20.317Z,49.95
2023-02-06T09:03:20.158Z,48.98
2023-02-06T09:04:20.156Z,47.86
2023-02-06T09:05:20.191Z,47.70
2023-02-06T09:06:20.150Z,49.31
2023-02-06T09:07:20.145Z,47.86
2023-02-06T09:08:20.150Z,49.95
2023-02-06T09:09:20.134Z,48.02
2023-02-06T09:10:27.509Z,49.63
2023-02-06T09:11:21.118Z,50.11
2023-02-06T09:12:20.100Z,48.82
2023-02-06T09:13:20.126Z,49.63
2023-02-06T09:14:20.094Z,51.88
2023-02-06T09:15:20.079Z,49.47
2023-02-06T09:16:20.184Z,49.31
2023-02-06T09:17:20.068Z,50.76
2023-02-06T09:18:20.053Z,48.82
2023-02-06T09:19:20.061Z,48.98
2023-02-06T09:20:20.042Z,50.11
2023-02-06T09:21:20.153Z,48.50
2023-02-06T09:22:20.034Z,49.15
2023-02-06T09:23:20.015Z,48.82
2023-02-06T09:24:21.012Z,50.43
2023-02-06T09:25:20.001Z,49.15
2023-02-06T09:26:19.997Z,49.95
2023-02-06T09:27:19.989Z,48.82
2023-02-06T09:28:20.071Z,49.15
2023-02-06T09:29:19.994Z,50.11
2023-02-06T09:30:20.039Z,51.08
2023-02-06T09:31:19.977Z,47.37
2023-02-06T09:32:19.946Z,48.82
2023-02-06T09:33:19.948Z,49.79
2023-02-06T09:34:19.931Z,48.82
2023-02-06T09:35:19.942Z,49.15
2023-02-06T09:36:19.924Z,49.15
2023-02-06T09:37:19.957Z,49.63
2023-02-06T09:38:19.902Z,49.47
2023-02-06T09:39:19.904Z,48.98
2023-02-06T09:40:19.959Z,46.73
2023-02-06T09:41:19.891Z,48.82
2023-02-06T09:42:19.894Z,48.18
2023-02-06T09:43:19.878Z,49.15
2023-02-06T09:44:19.882Z,47.53
2023-02-06T09:45:19.866Z,49.79
2023-02-06T09:46:19.951Z,48.82
2023-02-06T09:47:19.850Z,49.63
2023-02-06T09:48:19.854Z,49.79
2023-02-06T09:49:19.850Z,47.70
2023-02-06T09:50:19.857Z,48.18
2023-02-06T09:51:19.817Z,49.63
2023-02-06T09:52:19.838Z,48.02
2023-02-06T09:53:19.805Z,45.28
2023-02-06T09:54:19.798Z,46.25
2023-02-06T09:55:19.798Z,47.86
2023-02-06T09:56:19.793Z,46.41
2023-02-06T09:57:19.786Z,45.92
2023-02-06T09:58:19.775Z,44.79
2023-02-06T09:59:19.814Z,45.92
2023-02-06T10:00:19.767Z,46.25
2023-02-06T10:01:19.773Z,45.76
2023-02-06T10:02:19.756Z,45.92
2023-02-06T10:03:20.128Z,45.76
2023-02-06T10:04:19.791Z,46.41
2023-02-06T10:05:19.790Z,45.44
2023-02-06T10:06:19.776Z,44.96
2023-02-06T10:07:19.711Z,47.53
2023-02-06T10:08:19.819Z,45.12
2023-02-06T10:09:19.737Z,43.83
2023-02-06T10:10:19.714Z,46.89
2023-02-06T10:11:19.678Z,46.41
2023-02-06T10:12:19.712Z,44.96
2023-02-06T10:13:19.676Z,44.96
2023-02-06T10:14:19.662Z,44.63
2023-02-06T10:15:19.703Z,44.15
2023-02-06T10:16:19.722Z,45.44
2023-02-06T10:17:19.656Z,46.57
2023-02-06T10:18:19.643Z,45.92
2023-02-06T10:19:19.630Z,45.76
2023-02-06T10:20:19.620Z,43.67
2023-02-06T10:21:19.626Z,41.41
2023-02-06T10:22:19.654Z,45.44
2023-02-06T10:23:19.606Z,43.51
2023-02-06T10:24:19.596Z,44.47
2023-02-06T10:25:19.596Z,44.63
2023-02-06T10:26:19.594Z,44.63
2023-02-06T10:27:19.584Z,43.83
2023-02-06T10:28:19.577Z,44.31
2023-02-06T10:29:19.565Z,43.99
2023-02-06T10:30:19.560Z,44.63
2023-02-06T10:31:19.689Z,45.60
2023-02-06T10:32:19.642Z,45.44
2023-02-06T10:33:25.618Z,45.12
2023-02-06T10:34:21.541Z,47.86
2023-02-06T10:35:19.530Z,45.60
2023-02-06T10:36:19.531Z,44.96
2023-02-06T10:37:19.527Z,47.05
2023-02-06T10:38:19.501Z,46.41
2023-02-06T10:39:19.500Z,43.18
2023-02-06T10:40:19.505Z,45.28
2023-02-06T10:41:19.484Z,43.18
2023-02-06T10:42:21.724Z,46.25
2023-02-06T10:43:19.483Z,44.15
2023-02-06T10:44:19.464Z,45.60
2023-02-06T10:45:21.040Z,47.70
2023-02-06T10:46:20.736Z,46.25
2023-02-06T10:47:19.457Z,44.79
2023-02-06T10:48:19.453Z,43.34
2023-02-06T10:49:19.453Z,41.09
2023-02-06T10:50:19.446Z,45.12
2023-02-06T10:51:19.526Z,45.28
2023-02-06T10:52:19.459Z,42.38
2023-02-06T10:53:19.469Z,44.31
2023-02-06T10:54:19.442Z,45.12
2023-02-06T10:55:19.427Z,44.15
2023-02-06T10:56:19.418Z,43.18
2023-02-06T10:57:19.401Z,44.79
2023-02-06T10:58:19.402Z,44.47
2023-02-06T10:59:19.390Z,45.28
2023-02-06T11:00:19.375Z,45.44
2023-02-06T11:01:26.127Z,45.60
2023-02-06T11:02:20.462Z,46.73
2023-02-06T11:03:19.362Z,43.34
2023-02-06T11:04:19.365Z,41.09
2023-02-06T11:05:19.354Z,43.67
2023-02-06T11:06:19.354Z,43.83
2023-02-06T11:07:19.345Z,45.60
2023-02-06T11:08:19.324Z,43.99
2023-02-06T11:09:19.329Z,43.99
2023-02-06T11:10:19.481Z,43.34
2023-02-06T11:11:19.345Z,43.18
2023-02-06T11:12:19.297Z,41.41
2023-02-06T11:13:19.391Z,43.02
2023-02-06T11:14:19.300Z,43.18
2023-02-06T11:15:19.311Z,44.15
2023-02-06T11:16:19.300Z,41.09
2023-02-06T11:17:19.298Z,43.02
2023-02-06T11:18:19.288Z,42.70
2023-02-06T11:19:19.273Z,43.34
2023-02-06T11:20:19.270Z,41.89
2023-02-06T11:21:19.306Z,41.09
2023-02-06T11:22:19.261Z,41.73
2023-02-06T11:23:19.270Z,43.18
2023-02-06T11:24:19.242Z,43.51
2023-02-06T11:25:19.231Z,41.89
2023-02-06T11:26:19.279Z,42.22
2023-02-06T11:27:19.227Z,44.15
2023-02-06T11:28:19.273Z,44.79
2023-02-06T11:29:19.235Z,43.83
2023-02-06T11:30:19.218Z,41.57
2023-02-06T11:31:19.258Z,43.34
2023-02-06T11:32:19.210Z,43.02
2023-02-06T11:33:19.189Z,43.99
2023-02-06T11:34:19.246Z,42.70
2023-02-06T11:35:19.189Z,42.22
2023-02-06T11:36:19.177Z,41.25
2023-02-06T11:37:19.182Z,42.22
2023-02-06T11:38:19.169Z,41.09
2023-02-06T11:39:19.164Z,44.15
2023-02-06T11:40:19.177Z,43.02
2023-02-06T11:41:19.157Z,44.79
2023-02-06T11:42:19.139Z,43.67
2023-02-06T11:43:19.155Z,44.63
2023-02-06T11:44:19.119Z,42.86
2023-02-06T11:45:19.131Z,43.18
2023-02-06T11:46:19.213Z,44.96
2023-02-06T11:47:19.124Z,44.79
2023-02-06T11:48:19.113Z,44.79
2023-02-06T11:49:19.129Z,42.70
2023-02-06T11:50:19.092Z,44.47
2023-02-06T11:51:19.105Z,44.63
2023-02-06T11:52:19.094Z,43.99
2023-02-06T11:53:19.085Z,42.06
2023-02-06T11:54:19.076Z,42.22
2023-02-06T11:55:19.074Z,42.06
2023-02-06T11:56:19.084Z,45.92
2023-02-06T11:57:19.059Z,44.63
2023-02-06T11:58:19.058Z,43.34
2023-02-06T11:59:19.051Z,43.67
2023-02-06T12:00:19.073Z,43.51
2023-02-06T12:01:19.061Z,42.70
2023-02-06T12:02:19.070Z,44.63
2023-02-06T12:03:19.049Z,43.51
2023-02-06T12:04:19.030Z,43.99
2023-02-06T12:05:19.009Z,43.51
2023-02-06T12:06:19.039Z,42.38
2023-02-06T12:07:19.002Z,41.89
2023-02-06T12:08:19.006Z,42.70
2023-02-06T12:09:18.989Z,42.06
2023-02-06T12:10:18.997Z,41.25
2023-02-06T12:11:18.981Z,45.28
2023-02-06T12:12:19.011Z,43.51
2023-02-06T12:13:18.974Z,46.25
2023-02-06T12:14:19.339Z,45.28
2023-02-06T12:15:43.734Z,42.54
2023-02-06T12:16:20.977Z,45.28
2023-02-06T12:17:18.960Z,44.79
2023-02-06T12:18:18.950Z,43.67
2023-02-06T12:19:18.939Z,43.18
2023-02-06T12:20:18.928Z,43.51
2023-02-06T12:21:18.927Z,44.15
2023-02-06T12:22:19.011Z,42.70
2023-02-06T12:23:18.916Z,43.99
2023-02-06T12:24:18.910Z,42.06
2023-02-06T12:25:18.908Z,43.18
2023-02-06T12:26:18.894Z,44.96
2023-02-06T12:27:18.903Z,43.67
2023-02-06T12:28:18.953Z,44.31
2023-02-06T12:29:18.873Z,42.38
2023-02-06T12:30:18.873Z,45.60
2023-02-06T12:31:19.151Z,43.34
2023-02-06T12:32:18.879Z,44.15
2023-02-06T12:33:18.909Z,44.79
2023-02-06T12:34:18.850Z,43.51
2023-02-06T12:35:18.850Z,44.47
2023-02-06T12:36:18.847Z,45.76
2023-02-06T12:37:18.837Z,43.83
2023-02-06T12:38:18.821Z,42.70
2023-02-06T12:39:18.814Z,43.99
2023-02-06T12:40:18.809Z,45.76
2023-02-06T12:41:18.807Z,46.08
2023-02-06T12:42:18.813Z,45.44
2023-02-06T12:43:18.809Z,44.15
2023-02-06T12:44:18.785Z,43.83
2023-02-06T12:45:18.797Z,44.47
2023-02-06T12:46:19.367Z,44.47
2023-02-06T12:47:18.770Z,46.73
2023-02-06T12:48:18.768Z,46.41
2023-02-06T12:49:18.759Z,45.28
2023-02-06T12:50:18.768Z,46.08
2023-02-06T12:51:18.805Z,44.79
2023-02-06T12:52:18.743Z,47.21